Lacygne, Kansas
Current Conditions -  °F | °C
As of 8:21 AM on Thursday 23 Oct 2014 (Local Time) from KIXD Reporting Station
Light Rain Light Rain  
Wind Chill: 57°   Ceiling: 10000
Heat Index: 57°   Visibility: 4mi
Dew Point: 57°   Wind: 10mph
Humidity: 100%   Direction: 190°S
Pressure: 30.09"   Gusts: NA
Location:  38.3335°N, 94.7608°W
Report Text: KIXD 231321Z 19009KT 4SM -RA BR SCT008 OVC100 14/14 A3009 RMK AO2 P0000 T01390139
Loading
Personal Weather Stations






























Interactive Weather Map
Tropical Storm Tracking
New forecast layout! Learn more

10-Day Weather Forecast

Advertisements
Track Severe Weather on mobile